Time;durP1;ratioP1;P1;durP2;ratioP2;P2;SDS_P1;SDS_P2;PMS_P1;PMS_P2;Temp;Humidity;BMP_temperature;BMP_pressure;BME280_temperature;BME280_humidity;BME280_pressure;Samples;Min_cycle;Max_cycle;Signal;HPM_P1;HPM_P2
2022/03/14 00:00:59;;;;;;;;;;;11.90;97.30;;;;;;4362679;32;44222;-82
2022/03/14 00:03:27;;;;;;;;;;;11.90;97.30;;;;;;4349165;32;43076;-82
2022/03/14 00:05:54;;;;;;;;;;;11.90;97.40;;;;;;4349022;32;44149;-82
2022/03/14 00:08:24;;;;;;;;;;;11.90;97.40;;;;;;4349513;32;44264;-82
2022/03/14 00:10:53;;;;;;;;;;;11.90;97.30;;;;;;4349491;32;44097;-82
2022/03/14 00:13:20;;;;;;;;;;;11.90;97.30;;;;;;4349014;32;44272;-82
2022/03/14 00:15:47;;;;;;;;;;;11.90;97.40;;;;;;4362401;32;44738;-81
2022/03/14 00:18:15;;;;;;;;;;;11.90;97.50;;;;;;4349098;32;43292;-82
2022/03/14 00:20:42;;;;;;;;;;;11.90;97.50;;;;;;4349256;32;43692;-82
2022/03/14 00:23:10;;;;;;;;;;;11.90;97.50;;;;;;4348759;32;45937;-81
2022/03/14 00:25:37;;;;;;;;;;;11.90;97.50;;;;;;4348789;32;42762;-82
2022/03/14 00:28:04;;;;;;;;;;;11.80;97.50;;;;;;4349276;32;43601;-82
2022/03/14 00:30:31;;;;;;;;;;;11.80;97.60;;;;;;4348750;32;44759;-82
2022/03/14 00:32:59;;;;;;;;;;;11.80;97.70;;;;;;4362309;32;44039;-82
2022/03/14 00:35:27;;;;;;;;;;;11.80;97.70;;;;;;4349365;32;43400;-82
2022/03/14 00:37:55;;;;;;;;;;;11.80;97.70;;;;;;4349192;32;43307;-82
2022/03/14 00:40:23;;;;;;;;;;;11.80;97.80;;;;;;4361986;32;43452;-82
2022/03/14 00:42:53;;;;;;;;;;;11.80;97.80;;;;;;4348920;32;44138;-82
2022/03/14 00:45:24;;;;;;;;;;;11.80;97.90;;;;;;4348607;32;43945;-82
2022/03/14 00:47:51;;;;;;;;;;;11.80;97.90;;;;;;4349005;32;43418;-82
2022/03/14 00:50:18;;;;;;;;;;;11.80;97.90;;;;;;4362173;32;44012;-82
2022/03/14 00:52:46;;;;;;;;;;;11.80;97.90;;;;;;4348935;32;43992;-82
2022/03/14 00:55:13;;;;;;;;;;;11.80;98.00;;;;;;4348504;32;42445;-82
2022/03/14 00:57:40;;;;;;;;;;;11.80;98.00;;;;;;4348020;32;42719;-82
2022/03/14 01:00:08;;;;;;;;;;;11.70;98.00;;;;;;4361901;32;44171;-82
2022/03/14 01:02:35;;;;;;;;;;;11.80;98.00;;;;;;4348406;32;42881;-82
2022/03/14 01:05:02;;;;;;;;;;;11.70;98.10;;;;;;4348840;32;44203;-82
2022/03/14 01:07:29;;;;;;;;;;;11.70;98.10;;;;;;4348632;32;42510;-82
2022/03/14 01:09:56;;;;;;;;;;;11.70;98.10;;;;;;4348557;32;43198;-82
2022/03/14 01:12:23;;;;;;;;;;;11.70;98.10;;;;;;4361746;32;43341;-82
2022/03/14 01:14:50;;;;;;;;;;;11.70;98.20;;;;;;4361758;32;44143;-82
2022/03/14 01:17:17;;;;;;;;;;;11.70;98.20;;;;;;4348484;32;43855;-82
2022/03/14 01:19:44;;;;;;;;;;;11.70;98.20;;;;;;4348093;32;42918;-82
2022/03/14 01:22:11;;;;;;;;;;;11.70;98.20;;;;;;4348040;32;42321;-83
2022/03/14 01:24:43;;;;;;;;;;;11.70;98.20;;;;;;4348852;32;43123;-83
2022/03/14 01:27:10;;;;;;;;;;;11.70;98.20;;;;;;4361780;32;45219;-82
2022/03/14 01:29:38;;;;;;;;;;;11.70;98.10;;;;;;4348123;32;42516;-82
2022/03/14 01:32:06;;;;;;;;;;;11.70;98.10;;;;;;4347834;32;44229;-82
2022/03/14 01:34:34;;;;;;;;;;;11.70;98.10;;;;;;4361208;32;43903;-82
2022/03/14 01:37:02;;;;;;;;;;;11.70;98.00;;;;;;4348067;32;43247;-82
2022/03/14 01:39:30;;;;;;;;;;;11.70;97.90;;;;;;4347846;32;43404;-82
2022/03/14 01:41:57;;;;;;;;;;;11.60;97.80;;;;;;4361365;32;43294;-82
2022/03/14 01:44:25;;;;;;;;;;;11.70;97.80;;;;;;4348333;32;44217;-82
2022/03/14 01:46:53;;;;;;;;;;;11.70;97.80;;;;;;4360948;32;43778;-83
2022/03/14 01:49:20;;;;;;;;;;;11.60;97.70;;;;;;4348158;32;43490;-83
2022/03/14 01:51:47;;;;;;;;;;;11.60;97.70;;;;;;4347697;32;44427;-82
2022/03/14 01:54:14;;;;;;;;;;;11.60;97.60;;;;;;4347738;32;42588;-82
2022/03/14 01:56:43;;;;;;;;;;;11.60;97.60;;;;;;4347757;32;43689;-82
2022/03/14 01:59:10;;;;;;;;;;;11.60;97.60;;;;;;4347471;32;43418;-82
2022/03/14 02:01:37;;;;;;;;;;;11.60;97.60;;;;;;4347592;32;43857;-82
2022/03/14 02:04:08;;;;;;;;;;;11.60;97.60;;;;;;4361258;32;43238;-82
2022/03/14 02:06:35;;;;;;;;;;;11.60;97.60;;;;;;4361211;32;43532;-82
2022/03/14 02:09:03;;;;;;;;;;;11.60;97.60;;;;;;4347109;33;42795;-82
2022/03/14 02:11:30;;;;;;;;;;;11.50;97.60;;;;;;4347157;32;45252;-83
2022/03/14 02:13:57;;;;;;;;;;;11.60;97.60;;;;;;4347814;32;44207;-82
2022/03/14 02:16:24;;;;;;;;;;;11.50;97.60;;;;;;4347274;32;42917;-83
2022/03/14 02:18:52;;;;;;;;;;;11.50;97.50;;;;;;4347310;32;43482;-82
2022/03/14 02:21:19;;;;;;;;;;;11.60;97.60;;;;;;4360978;32;44212;-82
2022/03/14 02:23:46;;;;;;;;;;;11.50;97.50;;;;;;4347307;32;43214;-82
2022/03/14 02:26:14;;;;;;;;;;;11.50;97.60;;;;;;4360764;32;42821;-82
2022/03/14 02:28:41;;;;;;;;;;;11.50;97.50;;;;;;4360866;32;43914;-82
2022/03/14 02:31:08;;;;;;;;;;;11.50;97.50;;;;;;4346954;32;43231;-83
2022/03/14 02:33:35;;;;;;;;;;;11.50;97.50;;;;;;4347157;32;43939;-83
2022/03/14 02:36:03;;;;;;;;;;;11.50;97.50;;;;;;4360542;32;42808;-83
2022/03/14 02:38:30;;;;;;;;;;;11.50;97.60;;;;;;4360596;32;42839;-82
2022/03/14 02:40:57;;;;;;;;;;;11.50;97.60;;;;;;4360773;32;42788;-81
2022/03/14 02:43:25;;;;;;;;;;;11.50;97.60;;;;;;4347324;32;44102;-81
2022/03/14 02:45:52;;;;;;;;;;;11.40;97.60;;;;;;4360692;32;44051;-82
2022/03/14 02:48:20;;;;;;;;;;;11.40;97.60;;;;;;4360066;32;44878;-82
2022/03/14 02:50:48;;;;;;;;;;;11.50;97.70;;;;;;4346734;32;43486;-82
2022/03/14 02:53:16;;;;;;;;;;;11.40;97.60;;;;;;4346919;32;44951;-82
2022/03/14 02:55:44;;;;;;;;;;;11.40;97.70;;;;;;4360063;32;44018;-82
2022/03/14 02:58:11;;;;;;;;;;;11.40;97.80;;;;;;4360428;32;43294;-83
2022/03/14 03:00:38;;;;;;;;;;;11.40;97.80;;;;;;4360203;32;42863;-83
2022/03/14 03:03:11;;;;;;;;;;;11.40;97.80;;;;;;4360007;32;43976;-82
2022/03/14 03:05:43;;;;;;;;;;;11.40;97.80;;;;;;4347213;32;44494;-82
2022/03/14 03:08:11;;;;;;;;;;;11.40;97.80;;;;;;4360369;32;43450;-82
2022/03/14 03:10:39;;;;;;;;;;;11.40;97.80;;;;;;4346457;32;43031;-82
2022/03/14 03:13:06;;;;;;;;;;;11.40;97.80;;;;;;4346923;32;42718;-82
2022/03/14 03:15:37;;;;;;;;;;;11.40;97.80;;;;;;4346812;32;43030;-82
2022/03/14 03:18:05;;;;;;;;;;;11.30;97.80;;;;;;4347129;32;45381;-82
2022/03/14 03:20:32;;;;;;;;;;;11.30;97.80;;;;;;4346450;32;43580;-82
2022/03/14 03:22:59;;;;;;;;;;;11.30;97.80;;;;;;4360246;32;44434;-82
2022/03/14 03:25:27;;;;;;;;;;;11.30;98.00;;;;;;4346983;32;43896;-83
2022/03/14 03:27:54;;;;;;;;;;;11.30;98.00;;;;;;4346716;32;43176;-82
2022/03/14 03:30:23;;;;;;;;;;;11.30;97.90;;;;;;4346406;32;43884;-82
2022/03/14 03:32:50;;;;;;;;;;;11.30;98.00;;;;;;4360101;32;44022;-82
2022/03/14 03:35:17;;;;;;;;;;;11.20;98.30;;;;;;4359664;32;43525;-82
2022/03/14 03:37:44;;;;;;;;;;;11.20;98.00;;;;;;4346863;32;43850;-82
2022/03/14 03:40:12;;;;;;;;;;;11.20;98.00;;;;;;4346704;33;45339;-82
2022/03/14 03:42:39;;;;;;;;;;;11.20;98.10;;;;;;4359856;33;43377;-82
2022/03/14 03:45:06;;;;;;;;;;;11.20;98.10;;;;;;4360188;33;42947;-82
2022/03/14 03:47:33;;;;;;;;;;;11.20;98.10;;;;;;4346436;33;43954;-82
2022/03/14 03:50:00;;;;;;;;;;;11.20;98.20;;;;;;4360099;33;44622;-82
2022/03/14 03:52:27;;;;;;;;;;;11.20;98.20;;;;;;4346748;33;43866;-82
2022/03/14 03:54:54;;;;;;;;;;;11.20;98.20;;;;;;4359901;33;45046;-82
2022/03/14 03:57:21;;;;;;;;;;;11.20;98.20;;;;;;4346716;33;45829;-82
2022/03/14 03:59:49;;;;;;;;;;;11.20;98.30;;;;;;4346102;33;44262;-82
2022/03/14 04:02:19;;;;;;;;;;;11.20;98.30;;;;;;4343397;33;43238;-82
2022/03/14 04:04:47;;;;;;;;;;;11.10;98.40;;;;;;4344021;33;44258;-82
2022/03/14 04:07:16;;;;;;;;;;;11.10;98.40;;;;;;4343908;33;42906;-83
2022/03/14 04:09:43;;;;;;;;;;;11.20;98.40;;;;;;4343564;33;44207;-82
2022/03/14 04:12:10;;;;;;;;;;;11.10;98.40;;;;;;4343657;33;42926;-84
2022/03/14 04:14:38;;;;;;;;;;;11.10;98.40;;;;;;4344698;33;42464;-82
2022/03/14 04:17:07;;;;;;;;;;;11.10;98.40;;;;;;4344574;33;44149;-82
2022/03/14 04:19:41;;;;;;;;;;;11.10;98.40;;;;;;4345001;33;42883;-81
2022/03/14 04:22:08;;;;;;;;;;;11.10;98.40;;;;;;4343900;33;46322;-81
2022/03/14 04:24:37;;;;;;;;;;;11.10;98.40;;;;;;4345040;33;44206;-82
2022/03/14 04:27:04;;;;;;;;;;;11.10;98.40;;;;;;4344024;33;43931;-82
2022/03/14 04:29:31;;;;;;;;;;;11.10;98.50;;;;;;4344881;33;43910;-82
2022/03/14 04:31:58;;;;;;;;;;;11.10;98.50;;;;;;4343339;33;44196;-82
2022/03/14 04:34:26;;;;;;;;;;;11.10;98.50;;;;;;4345969;33;43934;-82
2022/03/14 04:36:53;;;;;;;;;;;11.10;98.50;;;;;;4346662;33;42699;-82
2022/03/14 04:39:20;;;;;;;;;;;11.10;98.50;;;;;;4346673;33;43740;-82
2022/03/14 04:41:47;;;;;;;;;;;11.10;98.60;;;;;;4346318;33;43260;-82
2022/03/14 04:44:16;;;;;;;;;;;11.10;98.60;;;;;;4347105;33;44057;-81
2022/03/14 04:46:43;;;;;;;;;;;11.00;98.60;;;;;;4346550;33;44208;-82
2022/03/14 04:49:13;;;;;;;;;;;11.10;98.50;;;;;;4345976;33;43308;-82
2022/03/14 04:51:41;;;;;;;;;;;11.00;98.50;;;;;;4346506;33;43230;-82
2022/03/14 04:54:08;;;;;;;;;;;11.10;98.60;;;;;;4346186;33;43328;-82
2022/03/14 04:56:35;;;;;;;;;;;11.00;98.60;;;;;;4347483;33;45622;-82
2022/03/14 04:59:03;;;;;;;;;;;11.00;98.60;;;;;;4347364;32;44371;-82
2022/03/14 05:01:30;;;;;;;;;;;11.00;98.70;;;;;;4348255;32;43327;-82
2022/03/14 05:03:58;;;;;;;;;;;11.00;98.60;;;;;;4348918;32;45335;-84
2022/03/14 05:06:25;;;;;;;;;;;11.00;98.60;;;;;;4348689;32;45075;-82
2022/03/14 05:08:52;;;;;;;;;;;11.00;98.60;;;;;;4348487;32;44187;-82
2022/03/14 05:11:19;;;;;;;;;;;11.00;98.70;;;;;;4348598;32;43970;-82
2022/03/14 05:13:46;;;;;;;;;;;11.00;98.70;;;;;;4348588;32;43354;-82
2022/03/14 05:16:13;;;;;;;;;;;10.90;98.70;;;;;;4361461;32;44079;-82
2022/03/14 05:18:41;;;;;;;;;;;11.00;98.70;;;;;;4348276;32;43198;-82
2022/03/14 05:21:08;;;;;;;;;;;11.00;98.70;;;;;;4348210;32;43414;-82
2022/03/14 05:23:35;;;;;;;;;;;10.90;98.70;;;;;;4361370;32;43208;-82
2022/03/14 05:26:02;;;;;;;;;;;10.90;98.80;;;;;;4348698;32;44095;-83
2022/03/14 05:28:29;;;;;;;;;;;10.90;98.80;;;;;;4361634;32;43915;-82
2022/03/14 05:30:57;;;;;;;;;;;10.90;98.80;;;;;;4347827;32;43422;-82
2022/03/14 05:33:24;;;;;;;;;;;10.90;99.00;;;;;;4348479;32;43478;-82
2022/03/14 05:35:51;;;;;;;;;;;10.90;99.00;;;;;;4361260;32;43864;-82
2022/03/14 05:38:18;;;;;;;;;;;10.90;99.00;;;;;;4361605;32;45229;-82
2022/03/14 05:40:46;;;;;;;;;;;10.80;98.90;;;;;;4361094;32;43346;-82
2022/03/14 05:43:13;;;;;;;;;;;10.90;99.10;;;;;;4347930;32;42865;-82
2022/03/14 05:45:40;;;;;;;;;;;10.80;99.20;;;;;;4348153;32;43597;-82
2022/03/14 05:48:07;;;;;;;;;;;10.90;99.20;;;;;;4347585;32;46368;-82
2022/03/14 05:50:34;;;;;;;;;;;10.80;99.10;;;;;;4361152;32;43453;-82
2022/03/14 05:53:01;;;;;;;;;;;10.90;99.20;;;;;;4361486;32;43351;-82
2022/03/14 05:55:29;;;;;;;;;;;10.80;99.20;;;;;;4347611;32;42314;-81
2022/03/14 05:57:56;;;;;;;;;;;10.80;99.20;;;;;;4347494;32;44274;-82
2022/03/14 06:00:24;;;;;;;;;;;10.80;99.20;;;;;;4347935;32;44337;-82
2022/03/14 06:02:52;;;;;;;;;;;10.80;99.30;;;;;;4347505;32;44383;-82
2022/03/14 06:05:21;;;;;;;;;;;10.80;99.30;;;;;;4361061;32;43491;-82
2022/03/14 06:07:48;;;;;;;;;;;10.80;99.30;;;;;;4347684;32;42364;-81
2022/03/14 06:10:15;;;;;;;;;;;10.80;99.30;;;;;;4360734;32;44218;-82
2022/03/14 06:12:43;;;;;;;;;;;10.80;99.30;;;;;;4361058;32;43897;-83
2022/03/14 06:15:12;;;;;;;;;;;10.80;99.40;;;;;;4360764;32;43621;-82
2022/03/14 06:17:43;;;;;;;;;;;10.80;99.40;;;;;;4360626;32;43369;-82
2022/03/14 06:20:11;;;;;;;;;;;10.80;99.40;;;;;;4347250;32;43482;-82
2022/03/14 06:22:39;;;;;;;;;;;10.70;99.40;;;;;;4360979;32;45127;-82
2022/03/14 06:25:06;;;;;;;;;;;10.70;99.50;;;;;;4347117;32;45222;-82
2022/03/14 06:27:33;;;;;;;;;;;10.70;99.60;;;;;;4347408;32;45643;-82
2022/03/14 06:30:01;;;;;;;;;;;10.70;99.60;;;;;;4360601;32;43343;-82
2022/03/14 06:32:38;;;;;;;;;;;10.70;99.50;;;;;;4347563;32;44191;-82
2022/03/14 06:35:06;;;;;;;;;;;10.70;99.70;;;;;;4361090;32;43990;-82
2022/03/14 06:37:34;;;;;;;;;;;10.70;99.60;;;;;;4347195;32;44296;-82
2022/03/14 06:40:02;;;;;;;;;;;10.70;99.70;;;;;;4347012;32;44004;-83
2022/03/14 06:42:35;;;;;;;;;;;10.60;99.70;;;;;;4360474;32;44146;-82
2022/03/14 06:45:03;;;;;;;;;;;10.60;99.60;;;;;;4347300;32;43995;-82
2022/03/14 06:47:32;;;;;;;;;;;10.60;99.70;;;;;;4347089;32;45147;-82
2022/03/14 06:49:59;;;;;;;;;;;10.60;99.80;;;;;;4347208;32;44348;-82
2022/03/14 06:52:26;;;;;;;;;;;10.60;99.90;;;;;;4347212;32;45105;-83
2022/03/14 06:54:53;;;;;;;;;;;10.60;99.80;;;;;;4359863;32;43472;-82
2022/03/14 06:57:20;;;;;;;;;;;10.60;99.80;;;;;;4346686;32;43856;-82
2022/03/14 06:59:47;;;;;;;;;;;10.60;99.80;;;;;;4347248;32;46175;-82
2022/03/14 07:02:15;;;;;;;;;;;10.60;99.90;;;;;;4346642;32;44278;-83
2022/03/14 07:04:42;;;;;;;;;;;10.60;99.90;;;;;;4360125;32;43501;-82
2022/03/14 07:07:10;;;;;;;;;;;10.60;99.90;;;;;;4347103;32;44275;-82
2022/03/14 07:09:37;;;;;;;;;;;10.60;99.90;;;;;;4346523;32;43385;-82
2022/03/14 07:12:05;;;;;;;;;;;10.50;99.90;;;;;;4360056;32;43435;-82
2022/03/14 07:14:32;;;;;;;;;;;10.60;99.90;;;;;;4359966;32;43352;-82
2022/03/14 07:16:59;;;;;;;;;;;10.60;99.90;;;;;;4346894;32;45348;-82
2022/03/14 07:19:26;;;;;;;;;;;10.60;99.90;;;;;;4346489;32;42905;-82
2022/03/14 07:21:53;;;;;;;;;;;10.60;99.90;;;;;;4346385;32;43454;-82
2022/03/14 07:24:21;;;;;;;;;;;10.60;99.90;;;;;;4360097;32;44075;-82
2022/03/14 07:26:48;;;;;;;;;;;10.60;99.90;;;;;;4346602;32;44533;-83
2022/03/14 07:29:15;;;;;;;;;;;10.60;99.90;;;;;;4346411;32;42697;-82
2022/03/14 07:31:42;;;;;;;;;;;10.60;99.90;;;;;;4346566;32;44270;-82
2022/03/14 07:34:10;;;;;;;;;;;10.60;99.90;;;;;;4346323;32;43026;-82
2022/03/14 07:36:37;;;;;;;;;;;10.60;99.90;;;;;;4346260;32;44073;-83
2022/03/14 07:39:05;;;;;;;;;;;10.60;99.90;;;;;;4359744;32;43542;-82
2022/03/14 07:41:32;;;;;;;;;;;10.60;99.90;;;;;;4346765;33;45032;-82
2022/03/14 07:44:03;;;;;;;;;;;10.60;99.90;;;;;;4359688;33;44181;-82
2022/03/14 07:46:32;;;;;;;;;;;10.60;99.90;;;;;;4346832;33;45308;-82
2022/03/14 07:48:59;;;;;;;;;;;10.60;99.90;;;;;;4359559;33;43814;-82
2022/03/14 07:51:28;;;;;;;;;;;10.60;99.90;;;;;;4359774;33;42348;-83
2022/03/14 07:53:55;;;;;;;;;;;10.60;99.90;;;;;;4346677;33;43849;-82
2022/03/14 07:56:22;;;;;;;;;;;10.60;99.90;;;;;;4359925;33;46018;-82
2022/03/14 07:58:49;;;;;;;;;;;10.60;99.90;;;;;;4359862;33;43148;-82
2022/03/14 08:01:19;;;;;;;;;;;10.60;99.90;;;;;;4345957;33;45074;-82
2022/03/14 08:03:47;;;;;;;;;;;10.60;99.90;;;;;;4359992;33;42998;-82
2022/03/14 08:06:19;;;;;;;;;;;10.60;99.90;;;;;;4346099;32;42754;-82
2022/03/14 08:08:47;;;;;;;;;;;10.60;99.90;;;;;;4361953;32;44231;-82
2022/03/14 08:11:14;;;;;;;;;;;10.60;99.90;;;;;;4362418;32;43336;-82
2022/03/14 08:13:41;;;;;;;;;;;10.60;99.90;;;;;;4349118;32;42168;-83
2022/03/14 08:16:13;;;;;;;;;;;10.60;99.90;;;;;;4349592;32;43831;-82
2022/03/14 08:18:40;;;;;;;;;;;10.60;99.90;;;;;;4362461;32;44835;-83
2022/03/14 08:21:07;;;;;;;;;;;10.50;99.90;;;;;;4349476;32;43258;-82
2022/03/14 08:23:36;;;;;;;;;;;10.50;99.90;;;;;;4349423;32;43284;-82
2022/03/14 08:26:03;;;;;;;;;;;10.60;99.90;;;;;;4349245;32;43371;-82
2022/03/14 08:28:31;;;;;;;;;;;10.60;99.90;;;;;;4362580;32;42846;-82
2022/03/14 08:30:59;;;;;;;;;;;10.60;99.90;;;;;;4362555;32;44183;-83
2022/03/14 08:33:29;;;;;;;;;;;10.60;99.90;;;;;;4348573;32;45427;-82
2022/03/14 08:36:00;;;;;;;;;;;10.50;99.90;;;;;;4362198;32;44818;-82
2022/03/14 08:38:28;;;;;;;;;;;10.50;99.90;;;;;;4349280;32;44409;-82
2022/03/14 08:40:55;;;;;;;;;;;10.50;99.90;;;;;;4349076;32;43246;-83
2022/03/14 08:43:22;;;;;;;;;;;10.50;99.90;;;;;;4362297;32;44684;-83
2022/03/14 08:45:49;;;;;;;;;;;10.60;99.90;;;;;;4362127;32;44397;-82
2022/03/14 08:48:17;;;;;;;;;;;10.60;99.90;;;;;;4361860;32;44842;-82
2022/03/14 08:50:44;;;;;;;;;;;10.60;99.90;;;;;;4348726;32;43283;-82
2022/03/14 08:53:11;;;;;;;;;;;10.60;99.90;;;;;;4348802;32;44130;-82
2022/03/14 08:55:38;;;;;;;;;;;10.60;99.90;;;;;;4348411;32;43509;-82
2022/03/14 08:58:05;;;;;;;;;;;10.60;99.90;;;;;;4361596;32;45638;-82
2022/03/14 09:00:32;;;;;;;;;;;10.60;99.90;;;;;;4348383;32;45811;-82
2022/03/14 09:03:00;;;;;;;;;;;10.60;99.90;;;;;;4348143;32;44707;-83
2022/03/14 09:05:27;;;;;;;;;;;10.60;99.90;;;;;;4361879;32;45534;-83
2022/03/14 09:07:54;;;;;;;;;;;10.60;99.90;;;;;;4362135;32;43199;-83
2022/03/14 09:10:21;;;;;;;;;;;10.60;99.90;;;;;;4348712;32;43868;-82
2022/03/14 09:12:49;;;;;;;;;;;10.60;99.90;;;;;;4348623;32;43868;-82
2022/03/14 09:15:17;;;;;;;;;;;10.60;99.90;;;;;;4348610;32;44974;-82
2022/03/14 09:17:56;;;;;;;;;;;10.60;99.90;;;;;;4361389;32;45952;-82
2022/03/14 09:20:24;;;;;;;;;;;10.60;99.90;;;;;;4348350;32;44831;-82
2022/03/14 09:22:51;;;;;;;;;;;10.60;99.90;;;;;;4348056;32;43874;-82
2022/03/14 09:25:19;;;;;;;;;;;10.60;99.90;;;;;;4361843;32;44216;-82
2022/03/14 09:27:48;;;;;;;;;;;10.60;99.90;;;;;;4348274;32;43294;-81
2022/03/14 09:30:15;;;;;;;;;;;10.60;99.90;;;;;;4347865;32;43138;-82
2022/03/14 09:32:43;;;;;;;;;;;10.60;99.90;;;;;;4361824;32;45334;-82
2022/03/14 09:35:11;;;;;;;;;;;10.60;99.90;;;;;;4348017;32;44167;-82
2022/03/14 09:37:39;;;;;;;;;;;10.60;99.90;;;;;;4361597;32;45057;-83
2022/03/14 09:40:08;;;;;;;;;;;10.60;99.90;;;;;;4361273;32;43756;-82
2022/03/14 09:42:39;;;;;;;;;;;10.60;99.90;;;;;;4361025;32;45266;-82
2022/03/14 09:45:06;;;;;;;;;;;10.60;99.90;;;;;;4361125;32;45097;-82
2022/03/14 09:47:39;;;;;;;;;;;10.60;99.90;;;;;;4348302;32;44336;-82
2022/03/14 09:50:08;;;;;;;;;;;10.60;99.90;;;;;;4347907;32;43020;-83
2022/03/14 09:52:36;;;;;;;;;;;10.60;99.90;;;;;;4361448;32;44405;-82
2022/03/14 09:55:05;;;;;;;;;;;10.60;99.90;;;;;;4347810;32;42717;-83
2022/03/14 09:57:32;;;;;;;;;;;10.60;99.90;;;;;;4361052;32;42855;-83
2022/03/14 09:59:59;;;;;;;;;;;10.60;99.90;;;;;;4348203;32;43937;-82
2022/03/14 10:02:26;;;;;;;;;;;10.60;99.90;;;;;;4360740;32;44735;-82
2022/03/14 10:04:54;;;;;;;;;;;10.60;99.90;;;;;;4347566;32;44608;-82
2022/03/14 10:07:21;;;;;;;;;;;10.60;99.90;;;;;;4347454;32;44117;-82
2022/03/14 10:09:54;;;;;;;;;;;10.60;99.90;;;;;;4348181;32;43195;-82
2022/03/14 10:12:21;;;;;;;;;;;10.70;99.90;;;;;;4347883;32;44817;-82
2022/03/14 10:14:49;;;;;;;;;;;10.60;99.90;;;;;;4347208;32;45888;-82
2022/03/14 10:17:16;;;;;;;;;;;10.70;99.90;;;;;;4360930;32;44558;-83
2022/03/14 10:19:52;;;;;;;;;;;10.70;99.90;;;;;;4361247;32;44538;-82
2022/03/14 10:22:20;;;;;;;;;;;10.70;99.90;;;;;;4348166;32;44223;-83
2022/03/14 10:24:48;;;;;;;;;;;10.70;99.90;;;;;;4347257;32;42983;-82
2022/03/14 10:27:19;;;;;;;;;;;10.70;99.90;;;;;;4348133;32;43198;-82
2022/03/14 10:29:46;;;;;;;;;;;10.70;99.90;;;;;;4347266;32;43319;-82
2022/03/14 10:32:28;;;;;;;;;;;10.70;99.90;;;;;;4346872;32;44220;-82
2022/03/14 10:34:58;;;;;;;;;;;10.70;99.90;;;;;;4360909;32;44610;-82
2022/03/14 10:37:27;;;;;;;;;;;10.80;99.90;;;;;;4347454;32;44181;-81
2022/03/14 10:39:59;;;;;;;;;;;10.70;99.90;;;;;;4347031;32;43897;-82
2022/03/14 10:42:26;;;;;;;;;;;10.70;99.90;;;;;;4347391;32;44571;-82
2022/03/14 10:44:54;;;;;;;;;;;10.80;99.90;;;;;;4346914;32;44183;-82
2022/03/14 10:47:24;;;;;;;;;;;10.80;99.90;;;;;;4347022;32;45958;-82
2022/03/14 10:49:51;;;;;;;;;;;10.80;99.90;;;;;;4346980;32;43062;-82
2022/03/14 10:52:22;;;;;;;;;;;10.80;99.90;;;;;;4346748;32;43338;-82
2022/03/14 10:54:49;;;;;;;;;;;10.80;99.90;;;;;;4348358;32;20001;-81
2022/03/14 10:57:25;;;;;;;;;;;10.80;99.60;;;;;;4346722;32;44055;-82
2022/03/14 10:59:54;;;;;;;;;;;10.90;99.50;;;;;;4359959;32;45750;-82
2022/03/14 11:02:25;;;;;;;;;;;10.90;99.40;;;;;;4359846;32;43717;-82
2022/03/14 11:04:54;;;;;;;;;;;10.90;99.50;;;;;;4360349;32;43948;-81
2022/03/14 11:07:24;;;;;;;;;;;10.90;99.40;;;;;;4346633;32;43464;-82
2022/03/14 11:09:56;;;;;;;;;;;10.90;99.40;;;;;;4360060;32;43645;-82
2022/03/14 11:12:24;;;;;;;;;;;10.90;99.80;;;;;;4347396;32;44829;-82
2022/03/14 11:14:52;;;;;;;;;;;10.90;99.50;;;;;;4360379;32;44864;-82
2022/03/14 11:17:23;;;;;;;;;;;10.90;99.50;;;;;;4359944;32;43360;-81
2022/03/14 11:19:51;;;;;;;;;;;10.90;99.40;;;;;;4346887;32;45353;-81
2022/03/14 11:22:18;;;;;;;;;;;10.90;99.30;;;;;;4346940;32;42295;-82
2022/03/14 11:24:47;;;;;;;;;;;10.90;99.50;;;;;;4359803;32;45843;-82
2022/03/14 11:27:17;;;;;;;;;;;10.90;99.50;;;;;;4346494;32;44147;-82
2022/03/14 11:29:45;;;;;;;;;;;10.90;99.50;;;;;;4346916;32;44925;-82
2022/03/14 11:32:14;;;;;;;;;;;10.90;99.30;;;;;;4359961;32;43189;-82
2022/03/14 11:35:01;;;;;;;;;;;10.90;99.30;;;;;;4348909;32;45259;-82
2022/03/14 11:37:30;;;;;;;;;;;10.90;99.30;;;;;;4346823;32;46393;-82
2022/03/14 11:39:58;;;;;;;;;;;11.00;99.30;;;;;;4346994;32;43328;-83
2022/03/14 11:42:25;;;;;;;;;;;11.00;99.30;;;;;;4346503;33;44024;-81
2022/03/14 11:44:53;;;;;;;;;;;11.00;99.40;;;;;;4346764;33;44324;-82
2022/03/14 11:47:21;;;;;;;;;;;11.00;99.30;;;;;;4346305;33;43249;-82
2022/03/14 11:49:48;;;;;;;;;;;11.00;99.40;;;;;;4360152;33;44266;-82
2022/03/14 11:52:19;;;;;;;;;;;11.00;99.30;;;;;;4346214;33;44215;-82
2022/03/14 11:54:48;;;;;;;;;;;11.00;99.20;;;;;;4346786;33;42845;-82
2022/03/14 11:57:36;;;;;;;;;;;11.00;99.20;;;;;;4346832;33;43489;-82
2022/03/14 12:00:24;;;;;;;;;;;11.00;99.40;;;;;;4346701;33;42749;-82
2022/03/14 12:02:52;;;;;;;;;;;11.10;99.50;;;;;;4346278;33;42914;-82
2022/03/14 12:05:32;;;;;;;;;;;11.10;99.30;;;;;;4359807;33;44279;-81
2022/03/14 12:07:59;;;;;;;;;;;11.10;99.20;;;;;;4346599;33;45231;-82
2022/03/14 12:10:33;;;;;;;;;;;11.10;99.00;;;;;;4346614;33;43395;-82
2022/03/14 12:13:03;;;;;;;;;;;11.20;99.00;;;;;;4359894;33;43257;-82
2022/03/14 12:15:41;;;;;;;;;;;11.20;99.10;;;;;;4359997;33;44270;-82
2022/03/14 12:18:24;;;;;;;;;;;11.20;98.90;;;;;;4346219;33;44286;-82
2022/03/14 12:20:50;;;;;;;;;;;11.30;98.80;;;;;;4359775;33;43151;-81
2022/03/14 12:23:24;;;;;;;;;;;11.30;98.70;;;;;;4346065;33;44513;-82
2022/03/14 12:25:51;;;;;;;;;;;11.40;98.50;;;;;;4346002;33;43800;-82
2022/03/14 12:28:24;;;;;;;;;;;11.40;98.30;;;;;;4359572;33;44249;-82
2022/03/14 12:30:56;;;;;;;;;;;11.40;98.40;;;;;;4346322;33;43200;-83
2022/03/14 12:33:36;;;;;;;;;;;11.40;98.20;;;;;;4346133;33;43333;-82
2022/03/14 12:36:25;;;;;;;;;;;11.40;98.20;;;;;;4359397;33;45533;-82
2022/03/14 12:39:05;;;;;;;;;;;11.40;98.00;;;;;;4346358;33;44218;-82
2022/03/14 12:41:33;;;;;;;;;;;11.50;97.70;;;;;;4359599;33;44505;-83
2022/03/14 12:44:00;;;;;;;;;;;11.50;97.30;;;;;;4345876;33;44100;-82
2022/03/14 12:46:28;;;;;;;;;;;11.50;97.20;;;;;;4346011;33;43238;-82
2022/03/14 12:48:56;;;;;;;;;;;11.50;96.90;;;;;;4346134;33;43346;-81
2022/03/14 12:51:24;;;;;;;;;;;11.50;97.10;;;;;;4346396;33;43366;-82
2022/03/14 12:53:52;;;;;;;;;;;11.50;96.90;;;;;;4360372;32;43287;-82
2022/03/14 12:56:24;;;;;;;;;;;11.50;96.80;;;;;;4348858;32;42596;-82
2022/03/14 12:58:51;;;;;;;;;;;11.60;97.10;;;;;;4362535;32;44121;-83
2022/03/14 13:01:18;;;;;;;;;;;11.60;96.70;;;;;;4361831;32;43291;-83
2022/03/14 13:03:47;;;;;;;;;;;11.50;96.70;;;;;;4348918;32;44404;-82
2022/03/14 13:06:14;;;;;;;;;;;11.50;96.60;;;;;;4348625;32;43872;-82
2022/03/14 13:08:48;;;;;;;;;;;11.50;96.80;;;;;;4361623;32;42890;-83
2022/03/14 13:11:17;;;;;;;;;;;11.60;96.90;;;;;;4348646;32;43574;-82
2022/03/14 13:13:45;;;;;;;;;;;11.50;96.90;;;;;;4348711;32;44306;-82
2022/03/14 13:16:14;;;;;;;;;;;11.60;97.20;;;;;;4348483;32;43251;-82
2022/03/14 13:18:45;;;;;;;;;;;11.60;97.30;;;;;;4348667;32;43883;-82
2022/03/14 13:21:13;;;;;;;;;;;11.70;97.40;;;;;;4361988;32;44322;-82
2022/03/14 13:23:41;;;;;;;;;;;11.70;97.40;;;;;;4361535;32;42779;-83
2022/03/14 13:26:09;;;;;;;;;;;11.70;97.00;;;;;;4348542;32;43662;-82
2022/03/14 13:28:37;;;;;;;;;;;11.70;97.00;;;;;;4348810;32;20011;-82
2022/03/14 13:31:09;;;;;;;;;;;11.70;96.90;;;;;;4348521;32;44223;-82
2022/03/14 13:33:40;;;;;;;;;;;11.70;97.00;;;;;;4348563;32;45367;-82
2022/03/14 13:36:09;;;;;;;;;;;11.70;96.80;;;;;;4348408;32;43940;-82
2022/03/14 13:38:40;;;;;;;;;;;11.80;97.00;;;;;;4348041;32;43080;-82
2022/03/14 13:41:17;;;;;;;;;;;11.80;96.80;;;;;;4361573;32;43892;-82
2022/03/14 13:43:45;;;;;;;;;;;11.80;96.90;;;;;;4361770;32;44249;-82
2022/03/14 13:46:27;;;;;;;;;;;11.80;97.00;;;;;;4347665;32;44562;-82
2022/03/14 13:48:56;;;;;;;;;;;11.80;96.90;;;;;;4361767;32;44254;-83
2022/03/14 13:51:27;;;;;;;;;;;11.80;96.90;;;;;;4361282;32;43024;-83
2022/03/14 13:53:55;;;;;;;;;;;11.80;96.90;;;;;;4348355;32;45475;-82
2022/03/14 13:56:22;;;;;;;;;;;11.80;96.70;;;;;;4348165;32;43247;-82
2022/03/14 13:59:33;;;;;;;;;;;11.80;96.80;;;;;;4361414;32;43327;-82
2022/03/14 14:02:04;;;;;;;;;;;11.80;96.80;;;;;;4347699;32;44063;-82
2022/03/14 14:04:52;;;;;;;;;;;11.90;97.00;;;;;;4347777;32;43223;-81
2022/03/14 14:07:26;;;;;;;;;;;11.90;96.90;;;;;;4346847;32;45362;-82
2022/03/14 14:10:10;;;;;;;;;;;11.90;96.90;;;;;;4349008;32;45911;-82
2022/03/14 14:12:37;;;;;;;;;;;11.90;96.80;;;;;;4360952;32;43481;-82
2022/03/14 14:15:06;;;;;;;;;;;11.90;96.90;;;;;;4347992;32;43183;-82
2022/03/14 14:17:37;;;;;;;;;;;12.00;96.90;;;;;;4347797;32;43020;-82
2022/03/14 14:20:07;;;;;;;;;;;12.00;96.80;;;;;;4361102;32;43210;-82
2022/03/14 14:22:34;;;;;;;;;;;12.00;96.90;;;;;;4361219;32;43472;-83
2022/03/14 14:25:04;;;;;;;;;;;12.10;96.80;;;;;;4347389;32;42774;-82